Terminal Aerodrome Forecast
Issued by NWS

Home | Current Version | Previous Version | Text Only | Print | Product List | Glossary On
Versions: 1 2 3 4 5 6 7 8 9 10 11 12 13 14 15 16 17 18 19 20 21 22 23
000
FTUS43 KABR 311722
TAFMBG
TAF
KMBG 311722Z 3118/0118 26020G27KT P6SM VCSH BKN040
     FM010300 29014KT P6SM OVC050
     FM011400 31016G24KT P6SM BKN050=

USA.gov is the U.S. government's official web portal to all federal, state and local government web resources and services.